sensor_id;sensor_type;location;lat;lon;timestamp;P1;durP1;ratioP1;P2;durP2;ratioP2
38113;SDS011;23926;53.222;6.354;2023-03-14T00:01:45;38.67;;;6.80;;
38113;SDS011;23926;53.222;6.354;2023-03-14T00:04:11;34.13;;;5.95;;
38113;SDS011;23926;53.222;6.354;2023-03-14T00:06:36;32.47;;;5.50;;
38113;SDS011;23926;53.222;6.354;2023-03-14T00:09:02;23.73;;;4.95;;
38113;SDS011;23926;53.222;6.354;2023-03-14T00:11:28;23.92;;;5.40;;
38113;SDS011;23926;53.222;6.354;2023-03-14T00:13:54;30.38;;;6.32;;
38113;SDS011;23926;53.222;6.354;2023-03-14T00:16:20;24.95;;;4.78;;
38113;SDS011;23926;53.222;6.354;2023-03-14T00:18:46;25.52;;;5.18;;
38113;SDS011;23926;53.222;6.354;2023-03-14T00:21:12;26.13;;;5.32;;
38113;SDS011;23926;53.222;6.354;2023-03-14T00:23:38;37.60;;;6.70;;
38113;SDS011;23926;53.222;6.354;2023-03-14T00:26:06;27.77;;;4.68;;
38113;SDS011;23926;53.222;6.354;2023-03-14T00:28:33;27.92;;;5.32;;
38113;SDS011;23926;53.222;6.354;2023-03-14T00:31:01;32.22;;;5.57;;
38113;SDS011;23926;53.222;6.354;2023-03-14T00:33:27;30.42;;;6.43;;
38113;SDS011;23926;53.222;6.354;2023-03-14T00:35:54;23.00;;;4.75;;
38113;SDS011;23926;53.222;6.354;2023-03-14T00:38:23;22.50;;;4.80;;
38113;SDS011;23926;53.222;6.354;2023-03-14T00:40:49;30.63;;;5.82;;
38113;SDS011;23926;53.222;6.354;2023-03-14T00:43:15;35.97;;;5.95;;
38113;SDS011;23926;53.222;6.354;2023-03-14T00:45:41;20.90;;;4.47;;
38113;SDS011;23926;53.222;6.354;2023-03-14T00:48:07;26.23;;;4.88;;
38113;SDS011;23926;53.222;6.354;2023-03-14T00:50:32;32.17;;;4.90;;
38113;SDS011;23926;53.222;6.354;2023-03-14T00:52:57;33.38;;;5.93;;
38113;SDS011;23926;53.222;6.354;2023-03-14T00:55:23;18.15;;;5.25;;
38113;SDS011;23926;53.222;6.354;2023-03-14T00:57:49;31.95;;;5.68;;
38113;SDS011;23926;53.222;6.354;2023-03-14T01:00:14;23.85;;;5.28;;
38113;SDS011;23926;53.222;6.354;2023-03-14T01:02:40;32.13;;;4.70;;
38113;SDS011;23926;53.222;6.354;2023-03-14T01:05:06;21.15;;;4.90;;
38113;SDS011;23926;53.222;6.354;2023-03-14T01:07:32;22.88;;;4.70;;
38113;SDS011;23926;53.222;6.354;2023-03-14T01:09:59;25.73;;;4.80;;
38113;SDS011;23926;53.222;6.354;2023-03-14T01:12:24;27.48;;;4.57;;
38113;SDS011;23926;53.222;6.354;2023-03-14T01:14:50;30.85;;;5.45;;
38113;SDS011;23926;53.222;6.354;2023-03-14T01:17:15;29.85;;;5.07;;
38113;SDS011;23926;53.222;6.354;2023-03-14T01:19:40;22.35;;;4.53;;
38113;SDS011;23926;53.222;6.354;2023-03-14T01:22:06;27.25;;;5.55;;
38113;SDS011;23926;53.222;6.354;2023-03-14T01:24:31;19.90;;;4.60;;
38113;SDS011;23926;53.222;6.354;2023-03-14T01:26:56;31.63;;;5.78;;
38113;SDS011;23926;53.222;6.354;2023-03-14T01:29:22;15.35;;;3.85;;
38113;SDS011;23926;53.222;6.354;2023-03-14T01:31:47;33.97;;;5.55;;
38113;SDS011;23926;53.222;6.354;2023-03-14T01:34:13;26.13;;;5.30;;
38113;SDS011;23926;53.222;6.354;2023-03-14T01:36:38;18.20;;;4.10;;
38113;SDS011;23926;53.222;6.354;2023-03-14T01:39:04;20.08;;;4.00;;
38113;SDS011;23926;53.222;6.354;2023-03-14T01:41:31;26.58;;;4.07;;
38113;SDS011;23926;53.222;6.354;2023-03-14T01:43:56;17.40;;;5.63;;
38113;SDS011;23926;53.222;6.354;2023-03-14T01:46:24;18.40;;;4.68;;
38113;SDS011;23926;53.222;6.354;2023-03-14T01:51:40;21.02;;;5.30;;
38113;SDS011;23926;53.222;6.354;2023-03-14T01:54:17;27.27;;;4.07;;
38113;SDS011;23926;53.222;6.354;2023-03-14T01:57:20;24.55;;;4.05;;
38113;SDS011;23926;53.222;6.354;2023-03-14T01:59:48;21.40;;;3.80;;
38113;SDS011;23926;53.222;6.354;2023-03-14T02:02:18;24.92;;;3.58;;
38113;SDS011;23926;53.222;6.354;2023-03-14T02:04:44;21.77;;;3.95;;
38113;SDS011;23926;53.222;6.354;2023-03-14T02:07:15;25.13;;;3.85;;
38113;SDS011;23926;53.222;6.354;2023-03-14T02:09:47;18.42;;;3.60;;
38113;SDS011;23926;53.222;6.354;2023-03-14T02:12:14;17.00;;;3.50;;
38113;SDS011;23926;53.222;6.354;2023-03-14T02:14:41;16.48;;;4.20;;
38113;SDS011;23926;53.222;6.354;2023-03-14T02:17:13;16.13;;;3.33;;
38113;SDS011;23926;53.222;6.354;2023-03-14T02:19:43;20.40;;;3.85;;
38113;SDS011;23926;53.222;6.354;2023-03-14T02:22:30;17.40;;;3.45;;
38113;SDS011;23926;53.222;6.354;2023-03-14T02:25:02;16.77;;;3.97;;
38113;SDS011;23926;53.222;6.354;2023-03-14T02:27:37;14.73;;;3.22;;
38113;SDS011;23926;53.222;6.354;2023-03-14T02:30:05;14.40;;;3.35;;
38113;SDS011;23926;53.222;6.354;2023-03-14T02:32:32;18.33;;;3.20;;
38113;SDS011;23926;53.222;6.354;2023-03-14T02:35:02;17.83;;;3.78;;
38113;SDS011;23926;53.222;6.354;2023-03-14T02:37:41;12.85;;;3.13;;
38113;SDS011;23926;53.222;6.354;2023-03-14T02:40:11;17.55;;;3.33;;
38113;SDS011;23926;53.222;6.354;2023-03-14T02:42:36;23.63;;;3.78;;
38113;SDS011;23926;53.222;6.354;2023-03-14T02:47:34;21.88;;;3.45;;
38113;SDS011;23926;53.222;6.354;2023-03-14T02:50:02;20.20;;;3.88;;
38113;SDS011;23926;53.222;6.354;2023-03-14T02:52:29;16.77;;;3.40;;
38113;SDS011;23926;53.222;6.354;2023-03-14T02:54:55;21.70;;;3.35;;
38113;SDS011;23926;53.222;6.354;2023-03-14T02:57:20;21.63;;;4.00;;
38113;SDS011;23926;53.222;6.354;2023-03-14T02:59:45;13.38;;;3.53;;
38113;SDS011;23926;53.222;6.354;2023-03-14T03:02:11;21.25;;;3.45;;
38113;SDS011;23926;53.222;6.354;2023-03-14T03:04:36;13.38;;;3.25;;
38113;SDS011;23926;53.222;6.354;2023-03-14T03:07:02;18.33;;;3.22;;
38113;SDS011;23926;53.222;6.354;2023-03-14T03:09:27;19.73;;;3.60;;
38113;SDS011;23926;53.222;6.354;2023-03-14T03:11:52;24.15;;;3.95;;
38113;SDS011;23926;53.222;6.354;2023-03-14T03:14:18;21.67;;;4.35;;
38113;SDS011;23926;53.222;6.354;2023-03-14T03:16:43;18.35;;;4.10;;
38113;SDS011;23926;53.222;6.354;2023-03-14T03:19:09;13.32;;;3.35;;
38113;SDS011;23926;53.222;6.354;2023-03-14T03:21:34;19.23;;;3.40;;
38113;SDS011;23926;53.222;6.354;2023-03-14T03:23:59;21.80;;;4.57;;
38113;SDS011;23926;53.222;6.354;2023-03-14T03:26:25;16.80;;;3.85;;
38113;SDS011;23926;53.222;6.354;2023-03-14T03:28:51;22.48;;;4.55;;
38113;SDS011;23926;53.222;6.354;2023-03-14T03:31:16;21.50;;;5.28;;
38113;SDS011;23926;53.222;6.354;2023-03-14T03:33:42;19.17;;;4.18;;
38113;SDS011;23926;53.222;6.354;2023-03-14T03:36:08;17.20;;;4.05;;
38113;SDS011;23926;53.222;6.354;2023-03-14T03:38:33;13.50;;;3.60;;
38113;SDS011;23926;53.222;6.354;2023-03-14T03:41:02;19.80;;;4.68;;
38113;SDS011;23926;53.222;6.354;2023-03-14T03:43:29;20.20;;;4.75;;
38113;SDS011;23926;53.222;6.354;2023-03-14T03:45:55;29.77;;;6.25;;
38113;SDS011;23926;53.222;6.354;2023-03-14T03:48:20;28.92;;;5.80;;
38113;SDS011;23926;53.222;6.354;2023-03-14T03:50:46;20.08;;;5.00;;
38113;SDS011;23926;53.222;6.354;2023-03-14T03:53:12;30.75;;;6.32;;
38113;SDS011;23926;53.222;6.354;2023-03-14T03:55:40;29.05;;;5.57;;
38113;SDS011;23926;53.222;6.354;2023-03-14T03:58:07;29.42;;;4.93;;
38113;SDS011;23926;53.222;6.354;2023-03-14T04:00:32;30.13;;;5.15;;
38113;SDS011;23926;53.222;6.354;2023-03-14T04:02:58;40.08;;;6.13;;
38113;SDS011;23926;53.222;6.354;2023-03-14T04:05:24;41.67;;;5.78;;
38113;SDS011;23926;53.222;6.354;2023-03-14T04:07:49;28.98;;;4.90;;
38113;SDS011;23926;53.222;6.354;2023-03-14T04:10:15;30.85;;;5.05;;
38113;SDS011;23926;53.222;6.354;2023-03-14T04:12:40;25.70;;;5.03;;
38113;SDS011;23926;53.222;6.354;2023-03-14T04:15:06;29.48;;;5.85;;
38113;SDS011;23926;53.222;6.354;2023-03-14T04:17:32;28.73;;;5.82;;
38113;SDS011;23926;53.222;6.354;2023-03-14T04:19:58;41.60;;;6.05;;
38113;SDS011;23926;53.222;6.354;2023-03-14T04:22:23;28.67;;;4.75;;
38113;SDS011;23926;53.222;6.354;2023-03-14T04:24:48;24.98;;;5.43;;
38113;SDS011;23926;53.222;6.354;2023-03-14T04:27:14;26.40;;;4.80;;
38113;SDS011;23926;53.222;6.354;2023-03-14T04:29:40;30.65;;;5.90;;
38113;SDS011;23926;53.222;6.354;2023-03-14T04:32:05;31.67;;;5.82;;
38113;SDS011;23926;53.222;6.354;2023-03-14T04:34:31;30.70;;;5.13;;
38113;SDS011;23926;53.222;6.354;2023-03-14T04:36:56;25.67;;;5.47;;
38113;SDS011;23926;53.222;6.354;2023-03-14T04:39:22;32.78;;;5.35;;
38113;SDS011;23926;53.222;6.354;2023-03-14T04:41:47;21.17;;;4.85;;
38113;SDS011;23926;53.222;6.354;2023-03-14T04:44:13;29.77;;;5.90;;
38113;SDS011;23926;53.222;6.354;2023-03-14T04:46:38;18.50;;;5.13;;
38113;SDS011;23926;53.222;6.354;2023-03-14T04:49:04;30.95;;;6.82;;
38113;SDS011;23926;53.222;6.354;2023-03-14T04:51:29;31.38;;;7.45;;
38113;SDS011;23926;53.222;6.354;2023-03-14T04:53:54;25.98;;;6.47;;
38113;SDS011;23926;53.222;6.354;2023-03-14T04:56:20;28.55;;;7.75;;
38113;SDS011;23926;53.222;6.354;2023-03-14T04:58:46;21.92;;;6.43;;
38113;SDS011;23926;53.222;6.354;2023-03-14T05:01:11;22.00;;;7.85;;
38113;SDS011;23926;53.222;6.354;2023-03-14T05:03:37;26.33;;;7.38;;
38113;SDS011;23926;53.222;6.354;2023-03-14T05:06:03;33.70;;;10.20;;
38113;SDS011;23926;53.222;6.354;2023-03-14T05:08:29;19.55;;;6.47;;
38113;SDS011;23926;53.222;6.354;2023-03-14T05:10:55;19.60;;;6.28;;
38113;SDS011;23926;53.222;6.354;2023-03-14T05:13:22;27.40;;;8.10;;
38113;SDS011;23926;53.222;6.354;2023-03-14T05:15:48;22.50;;;7.30;;
38113;SDS011;23926;53.222;6.354;2023-03-14T05:18:15;27.45;;;8.88;;
38113;SDS011;23926;53.222;6.354;2023-03-14T05:20:41;22.73;;;8.95;;
38113;SDS011;23926;53.222;6.354;2023-03-14T05:23:08;25.70;;;9.23;;
38113;SDS011;23926;53.222;6.354;2023-03-14T05:25:33;14.93;;;6.57;;
38113;SDS011;23926;53.222;6.354;2023-03-14T05:27:59;15.60;;;6.55;;
38113;SDS011;23926;53.222;6.354;2023-03-14T05:30:24;24.95;;;8.05;;
38113;SDS011;23926;53.222;6.354;2023-03-14T05:32:50;11.52;;;6.15;;
38113;SDS011;23926;53.222;6.354;2023-03-14T05:35:15;20.80;;;7.38;;
38113;SDS011;23926;53.222;6.354;2023-03-14T05:37:41;19.75;;;6.90;;
38113;SDS011;23926;53.222;6.354;2023-03-14T05:40:06;20.33;;;8.35;;
38113;SDS011;23926;53.222;6.354;2023-03-14T05:42:33;12.20;;;5.43;;
38113;SDS011;23926;53.222;6.354;2023-03-14T05:44:59;17.38;;;6.63;;
38113;SDS011;23926;53.222;6.354;2023-03-14T05:47:24;12.05;;;5.45;;
38113;SDS011;23926;53.222;6.354;2023-03-14T05:49:50;11.05;;;5.25;;
38113;SDS011;23926;53.222;6.354;2023-03-14T05:52:16;17.00;;;6.90;;
38113;SDS011;23926;53.222;6.354;2023-03-14T05:54:41;21.73;;;7.57;;
38113;SDS011;23926;53.222;6.354;2023-03-14T05:57:06;9.68;;;4.80;;
38113;SDS011;23926;53.222;6.354;2023-03-14T05:59:32;10.80;;;4.93;;
38113;SDS011;23926;53.222;6.354;2023-03-14T06:01:57;14.30;;;6.72;;
38113;SDS011;23926;53.222;6.354;2023-03-14T06:04:23;14.95;;;6.40;;
38113;SDS011;23926;53.222;6.354;2023-03-14T06:06:49;17.45;;;6.03;;
38113;SDS011;23926;53.222;6.354;2023-03-14T06:09:14;15.50;;;5.13;;
38113;SDS011;23926;53.222;6.354;2023-03-14T06:11:40;11.60;;;5.03;;
38113;SDS011;23926;53.222;6.354;2023-03-14T06:14:06;7.78;;;3.10;;
38113;SDS011;23926;53.222;6.354;2023-03-14T06:16:31;11.95;;;3.17;;
38113;SDS011;23926;53.222;6.354;2023-03-14T06:18:57;15.98;;;3.15;;
38113;SDS011;23926;53.222;6.354;2023-03-14T06:21:22;15.50;;;2.40;;
38113;SDS011;23926;53.222;6.354;2023-03-14T06:23:48;12.15;;;2.63;;
38113;SDS011;23926;53.222;6.354;2023-03-14T06:26:13;20.23;;;3.72;;
38113;SDS011;23926;53.222;6.354;2023-03-14T06:28:39;14.43;;;2.22;;
38113;SDS011;23926;53.222;6.354;2023-03-14T06:31:04;23.48;;;3.22;;
38113;SDS011;23926;53.222;6.354;2023-03-14T06:33:30;29.45;;;2.90;;
38113;SDS011;23926;53.222;6.354;2023-03-14T06:35:55;13.10;;;2.50;;
38113;SDS011;23926;53.222;6.354;2023-03-14T06:38:21;23.75;;;3.42;;
38113;SDS011;23926;53.222;6.354;2023-03-14T06:40:46;25.05;;;2.25;;
38113;SDS011;23926;53.222;6.354;2023-03-14T06:43:12;27.42;;;2.85;;
38113;SDS011;23926;53.222;6.354;2023-03-14T06:45:37;23.30;;;2.78;;
38113;SDS011;23926;53.222;6.354;2023-03-14T06:48:03;19.13;;;2.88;;
38113;SDS011;23926;53.222;6.354;2023-03-14T06:50:28;19.02;;;1.90;;
38113;SDS011;23926;53.222;6.354;2023-03-14T06:52:54;28.98;;;2.58;;
38113;SDS011;23926;53.222;6.354;2023-03-14T06:55:19;11.10;;;1.27;;
38113;SDS011;23926;53.222;6.354;2023-03-14T06:57:45;11.00;;;2.08;;
38113;SDS011;23926;53.222;6.354;2023-03-14T07:00:12;15.75;;;1.83;;
38113;SDS011;23926;53.222;6.354;2023-03-14T07:02:39;11.85;;;1.45;;
38113;SDS011;23926;53.222;6.354;2023-03-14T07:05:04;11.20;;;2.15;;
38113;SDS011;23926;53.222;6.354;2023-03-14T07:07:31;10.13;;;1.50;;
38113;SDS011;23926;53.222;6.354;2023-03-14T07:09:56;12.13;;;1.67;;
38113;SDS011;23926;53.222;6.354;2023-03-14T07:12:22;14.50;;;1.80;;
38113;SDS011;23926;53.222;6.354;2023-03-14T07:14:47;7.43;;;1.50;;
38113;SDS011;23926;53.222;6.354;2023-03-14T07:17:12;4.20;;;0.98;;
38113;SDS011;23926;53.222;6.354;2023-03-14T07:19:38;7.93;;;1.48;;
38113;SDS011;23926;53.222;6.354;2023-03-14T07:22:04;6.43;;;0.90;;
38113;SDS011;23926;53.222;6.354;2023-03-14T07:24:30;11.27;;;1.55;;
38113;SDS011;23926;53.222;6.354;2023-03-14T07:26:56;4.72;;;1.17;;
38113;SDS011;23926;53.222;6.354;2023-03-14T07:29:21;7.20;;;1.00;;
38113;SDS011;23926;53.222;6.354;2023-03-14T07:31:47;6.80;;;0.85;;
38113;SDS011;23926;53.222;6.354;2023-03-14T07:34:12;9.90;;;1.50;;
38113;SDS011;23926;53.222;6.354;2023-03-14T07:36:37;7.85;;;1.20;;
38113;SDS011;23926;53.222;6.354;2023-03-14T07:39:03;5.13;;;0.95;;
38113;SDS011;23926;53.222;6.354;2023-03-14T07:41:29;8.55;;;1.40;;
38113;SDS011;23926;53.222;6.354;2023-03-14T07:43:55;10.82;;;1.45;;
38113;SDS011;23926;53.222;6.354;2023-03-14T07:46:20;7.82;;;1.27;;
38113;SDS011;23926;53.222;6.354;2023-03-14T07:48:46;17.85;;;1.73;;
38113;SDS011;23926;53.222;6.354;2023-03-14T07:51:11;15.30;;;2.65;;
38113;SDS011;23926;53.222;6.354;2023-03-14T07:53:36;12.85;;;1.48;;
38113;SDS011;23926;53.222;6.354;2023-03-14T07:56:03;11.45;;;2.00;;
38113;SDS011;23926;53.222;6.354;2023-03-14T07:58:28;8.75;;;1.40;;
38113;SDS011;23926;53.222;6.354;2023-03-14T08:00:54;14.82;;;2.08;;
38113;SDS011;23926;53.222;6.354;2023-03-14T08:03:19;11.13;;;2.33;;
38113;SDS011;23926;53.222;6.354;2023-03-14T08:05:48;10.70;;;1.42;;
38113;SDS011;23926;53.222;6.354;2023-03-14T08:08:14;22.02;;;2.03;;
38113;SDS011;23926;53.222;6.354;2023-03-14T08:10:39;10.48;;;1.17;;
38113;SDS011;23926;53.222;6.354;2023-03-14T08:13:05;8.38;;;1.50;;
38113;SDS011;23926;53.222;6.354;2023-03-14T08:15:31;9.88;;;2.05;;
38113;SDS011;23926;53.222;6.354;2023-03-14T08:17:57;7.93;;;2.13;;
38113;SDS011;23926;53.222;6.354;2023-03-14T08:20:25;12.93;;;1.55;;
38113;SDS011;23926;53.222;6.354;2023-03-14T08:22:52;8.95;;;1.73;;
38113;SDS011;23926;53.222;6.354;2023-03-14T08:25:19;8.57;;;2.03;;
38113;SDS011;23926;53.222;6.354;2023-03-14T08:27:45;9.90;;;2.75;;
38113;SDS011;23926;53.222;6.354;2023-03-14T08:30:11;16.08;;;2.92;;
38113;SDS011;23926;53.222;6.354;2023-03-14T08:32:39;13.02;;;2.47;;
38113;SDS011;23926;53.222;6.354;2023-03-14T08:35:05;14.18;;;2.25;;
38113;SDS011;23926;53.222;6.354;2023-03-14T08:37:32;12.60;;;2.50;;
38113;SDS011;23926;53.222;6.354;2023-03-14T08:39:57;11.88;;;1.88;;
38113;SDS011;23926;53.222;6.354;2023-03-14T08:42:23;13.70;;;2.30;;
38113;SDS011;23926;53.222;6.354;2023-03-14T08:44:50;12.30;;;2.40;;
38113;SDS011;23926;53.222;6.354;2023-03-14T08:47:16;19.15;;;3.63;;
38113;SDS011;23926;53.222;6.354;2023-03-14T08:49:41;20.27;;;2.83;;
38113;SDS011;23926;53.222;6.354;2023-03-14T08:52:07;21.70;;;3.88;;
38113;SDS011;23926;53.222;6.354;2023-03-14T08:54:32;22.38;;;2.97;;
38113;SDS011;23926;53.222;6.354;2023-03-14T08:56:58;17.02;;;2.80;;
38113;SDS011;23926;53.222;6.354;2023-03-14T08:59:23;24.27;;;4.18;;
38113;SDS011;23926;53.222;6.354;2023-03-14T09:01:49;19.30;;;3.25;;
38113;SDS011;23926;53.222;6.354;2023-03-14T09:04:14;22.73;;;3.22;;
38113;SDS011;23926;53.222;6.354;2023-03-14T09:06:40;21.42;;;3.03;;
38113;SDS011;23926;53.222;6.354;2023-03-14T09:09:05;24.80;;;4.80;;
38113;SDS011;23926;53.222;6.354;2023-03-14T09:11:31;32.83;;;4.35;;
38113;SDS011;23926;53.222;6.354;2023-03-14T09:13:57;33.55;;;5.75;;
38113;SDS011;23926;53.222;6.354;2023-03-14T09:16:22;26.85;;;3.60;;
38113;SDS011;23926;53.222;6.354;2023-03-14T09:18:48;28.50;;;4.28;;
38113;SDS011;23926;53.222;6.354;2023-03-14T09:21:13;24.35;;;3.47;;
38113;SDS011;23926;53.222;6.354;2023-03-14T09:23:40;34.00;;;4.13;;
38113;SDS011;23926;53.222;6.354;2023-03-14T09:26:05;25.45;;;3.67;;
38113;SDS011;23926;53.222;6.354;2023-03-14T09:28:31;36.10;;;4.28;;
38113;SDS011;23926;53.222;6.354;2023-03-14T09:30:57;29.42;;;4.35;;
38113;SDS011;23926;53.222;6.354;2023-03-14T09:33:23;33.58;;;4.32;;
38113;SDS011;23926;53.222;6.354;2023-03-14T09:35:49;20.98;;;3.45;;
38113;SDS011;23926;53.222;6.354;2023-03-14T09:38:15;24.38;;;3.67;;
38113;SDS011;23926;53.222;6.354;2023-03-14T09:40:41;25.33;;;3.40;;
38113;SDS011;23926;53.222;6.354;2023-03-14T09:43:09;30.15;;;3.95;;
38113;SDS011;23926;53.222;6.354;2023-03-14T09:45:39;15.65;;;2.65;;
38113;SDS011;23926;53.222;6.354;2023-03-14T09:48:12;33.17;;;4.47;;
38113;SDS011;23926;53.222;6.354;2023-03-14T09:50:46;27.45;;;4.03;;
38113;SDS011;23926;53.222;6.354;2023-03-14T09:53:19;17.67;;;3.42;;
38113;SDS011;23926;53.222;6.354;2023-03-14T09:55:48;19.73;;;3.95;;
38113;SDS011;23926;53.222;6.354;2023-03-14T09:58:19;25.48;;;4.07;;
38113;SDS011;23926;53.222;6.354;2023-03-14T10:00:46;26.58;;;4.35;;
38113;SDS011;23926;53.222;6.354;2023-03-14T10:05:39;27.58;;;4.05;;
38113;SDS011;23926;53.222;6.354;2023-03-14T10:08:06;23.45;;;3.58;;
38113;SDS011;23926;53.222;6.354;2023-03-14T10:10:33;17.05;;;3.22;;
38113;SDS011;23926;53.222;6.354;2023-03-14T10:12:59;13.55;;;2.90;;
38113;SDS011;23926;53.222;6.354;2023-03-14T10:15:37;16.65;;;3.95;;
38113;SDS011;23926;53.222;6.354;2023-03-14T10:18:04;19.25;;;2.85;;
38113;SDS011;23926;53.222;6.354;2023-03-14T10:20:38;12.23;;;2.55;;
38113;SDS011;23926;53.222;6.354;2023-03-14T10:23:17;21.67;;;3.92;;
38113;SDS011;23926;53.222;6.354;2023-03-14T10:28:34;12.25;;;2.45;;
38113;SDS011;23926;53.222;6.354;2023-03-14T10:31:04;17.23;;;2.67;;
38113;SDS011;23926;53.222;6.354;2023-03-14T10:33:32;19.42;;;3.42;;
38113;SDS011;23926;53.222;6.354;2023-03-14T10:36:03;15.70;;;2.58;;
38113;SDS011;23926;53.222;6.354;2023-03-14T10:38:39;25.00;;;2.42;;
38113;SDS011;23926;53.222;6.354;2023-03-14T10:41:24;19.23;;;3.05;;
38113;SDS011;23926;53.222;6.354;2023-03-14T10:43:51;13.88;;;2.60;;
38113;SDS011;23926;53.222;6.354;2023-03-14T10:46:21;14.05;;;2.25;;
38113;SDS011;23926;53.222;6.354;2023-03-14T10:48:49;8.88;;;2.42;;
38113;SDS011;23926;53.222;6.354;2023-03-14T10:53:46;7.55;;;1.70;;
38113;SDS011;23926;53.222;6.354;2023-03-14T10:56:13;8.20;;;2.10;;
38113;SDS011;23926;53.222;6.354;2023-03-14T10:58:47;21.90;;;2.65;;
38113;SDS011;23926;53.222;6.354;2023-03-14T11:03:58;14.05;;;3.88;;
38113;SDS011;23926;53.222;6.354;2023-03-14T11:12:03;15.00;;;2.15;;
38113;SDS011;23926;53.222;6.354;2023-03-14T11:14:44;14.75;;;2.22;;
38113;SDS011;23926;53.222;6.354;2023-03-14T11:19:52;10.60;;;2.15;;
38113;SDS011;23926;53.222;6.354;2023-03-14T11:22:40;18.75;;;2.85;;
38113;SDS011;23926;53.222;6.354;2023-03-14T11:28:01;8.13;;;1.40;;
38113;SDS011;23926;53.222;6.354;2023-03-14T11:30:55;7.60;;;1.23;;
38113;SDS011;23926;53.222;6.354;2023-03-14T11:33:37;5.85;;;1.83;;
38113;SDS011;23926;53.222;6.354;2023-03-14T11:36:10;5.65;;;1.45;;
38113;SDS011;23926;53.222;6.354;2023-03-14T11:38:42;9.18;;;2.28;;
38113;SDS011;23926;53.222;6.354;2023-03-14T11:41:29;18.13;;;2.45;;
38113;SDS011;23926;53.222;6.354;2023-03-14T11:43:59;7.78;;;1.27;;
38113;SDS011;23926;53.222;6.354;2023-03-14T11:46:29;10.70;;;1.70;;
38113;SDS011;23926;53.222;6.354;2023-03-14T11:51:52;11.02;;;2.00;;
38113;SDS011;23926;53.222;6.354;2023-03-14T11:54:31;10.23;;;1.98;;
38113;SDS011;23926;53.222;6.354;2023-03-14T11:57:05;8.73;;;2.05;;
38113;SDS011;23926;53.222;6.354;2023-03-14T12:04:59;11.05;;;1.80;;
38113;SDS011;23926;53.222;6.354;2023-03-14T12:10:40;9.95;;;1.95;;
38113;SDS011;23926;53.222;6.354;2023-03-14T12:13:13;9.10;;;2.00;;
38113;SDS011;23926;53.222;6.354;2023-03-14T12:15:41;14.25;;;2.75;;
38113;SDS011;23926;53.222;6.354;2023-03-14T12:20:56;10.68;;;1.80;;
38113;SDS011;23926;53.222;6.354;2023-03-14T12:23:25;13.52;;;1.77;;
38113;SDS011;23926;53.222;6.354;2023-03-14T12:28:35;15.23;;;2.15;;
38113;SDS011;23926;53.222;6.354;2023-03-14T12:31:35;10.07;;;1.85;;
38113;SDS011;23926;53.222;6.354;2023-03-14T12:42:22;8.40;;;2.03;;
38113;SDS011;23926;53.222;6.354;2023-03-14T12:45:23;10.30;;;2.22;;
38113;SDS011;23926;53.222;6.354;2023-03-14T12:47:52;15.35;;;2.20;;
38113;SDS011;23926;53.222;6.354;2023-03-14T12:51:26;10.85;;;1.90;;
38113;SDS011;23926;53.222;6.354;2023-03-14T13:01:14;8.23;;;1.80;;
38113;SDS011;23926;53.222;6.354;2023-03-14T13:03:43;8.27;;;2.33;;
38113;SDS011;23926;53.222;6.354;2023-03-14T13:06:12;6.85;;;1.60;;
38113;SDS011;23926;53.222;6.354;2023-03-14T13:08:39;5.55;;;1.50;;
38113;SDS011;23926;53.222;6.354;2023-03-14T13:11:10;11.25;;;1.75;;
38113;SDS011;23926;53.222;6.354;2023-03-14T13:14:13;10.40;;;1.75;;
38113;SDS011;23926;53.222;6.354;2023-03-14T13:16:35;8.05;;;1.50;;
38113;SDS011;23926;53.222;6.354;2023-03-14T13:19:09;6.07;;;1.33;;
38113;SDS011;23926;53.222;6.354;2023-03-14T13:21:40;6.85;;;2.03;;
38113;SDS011;23926;53.222;6.354;2023-03-14T13:24:07;6.45;;;1.98;;
38113;SDS011;23926;53.222;6.354;2023-03-14T13:26:46;12.75;;;1.90;;
38113;SDS011;23926;53.222;6.354;2023-03-14T13:29:22;5.63;;;1.30;;
38113;SDS011;23926;53.222;6.354;2023-03-14T13:32:02;9.15;;;1.85;;
38113;SDS011;23926;53.222;6.354;2023-03-14T13:34:46;6.95;;;1.85;;
38113;SDS011;23926;53.222;6.354;2023-03-14T13:37:17;7.28;;;2.20;;
38113;SDS011;23926;53.222;6.354;2023-03-14T13:39:49;7.95;;;1.65;;
38113;SDS011;23926;53.222;6.354;2023-03-14T13:42:15;14.77;;;2.30;;
38113;SDS011;23926;53.222;6.354;2023-03-14T13:44:42;12.45;;;2.33;;
38113;SDS011;23926;53.222;6.354;2023-03-14T13:47:17;9.60;;;2.13;;
38113;SDS011;23926;53.222;6.354;2023-03-14T13:49:44;11.38;;;2.10;;
38113;SDS011;23926;53.222;6.354;2023-03-14T13:52:24;9.55;;;1.80;;
38113;SDS011;23926;53.222;6.354;2023-03-14T13:54:54;17.77;;;2.10;;
38113;SDS011;23926;53.222;6.354;2023-03-14T13:57:20;6.85;;;1.77;;
38113;SDS011;23926;53.222;6.354;2023-03-14T14:00:00;6.13;;;1.88;;
38113;SDS011;23926;53.222;6.354;2023-03-14T14:02:32;6.38;;;1.50;;
38113;SDS011;23926;53.222;6.354;2023-03-14T14:05:01;9.60;;;1.88;;
38113;SDS011;23926;53.222;6.354;2023-03-14T14:07:26;10.02;;;1.58;;
38113;SDS011;23926;53.222;6.354;2023-03-14T14:09:53;9.25;;;1.95;;
38113;SDS011;23926;53.222;6.354;2023-03-14T14:12:25;12.00;;;2.35;;
38113;SDS011;23926;53.222;6.354;2023-03-14T14:15:09;10.48;;;2.20;;
38113;SDS011;23926;53.222;6.354;2023-03-14T14:17:40;7.05;;;1.90;;
38113;SDS011;23926;53.222;6.354;2023-03-14T14:20:23;9.45;;;1.90;;
38113;SDS011;23926;53.222;6.354;2023-03-14T14:22:59;12.38;;;2.20;;
38113;SDS011;23926;53.222;6.354;2023-03-14T14:25:28;14.15;;;2.40;;
38113;SDS011;23926;53.222;6.354;2023-03-14T14:28:23;11.57;;;2.40;;
38113;SDS011;23926;53.222;6.354;2023-03-14T14:33:46;14.68;;;3.15;;
38113;SDS011;23926;53.222;6.354;2023-03-14T14:39:03;5.28;;;1.85;;
38113;SDS011;23926;53.222;6.354;2023-03-14T14:41:39;14.65;;;2.10;;
38113;SDS011;23926;53.222;6.354;2023-03-14T14:44:07;11.00;;;2.05;;
38113;SDS011;23926;53.222;6.354;2023-03-14T14:46:38;8.82;;;1.60;;
38113;SDS011;23926;53.222;6.354;2023-03-14T14:49:12;12.35;;;1.90;;
38113;SDS011;23926;53.222;6.354;2023-03-14T14:51:44;14.07;;;2.20;;
38113;SDS011;23926;53.222;6.354;2023-03-14T14:54:19;17.38;;;3.25;;
38113;SDS011;23926;53.222;6.354;2023-03-14T14:57:03;9.60;;;1.88;;
38113;SDS011;23926;53.222;6.354;2023-03-14T14:59:30;11.68;;;2.00;;
38113;SDS011;23926;53.222;6.354;2023-03-14T15:02:24;8.18;;;2.13;;
38113;SDS011;23926;53.222;6.354;2023-03-14T15:05:18;12.45;;;2.30;;
38113;SDS011;23926;53.222;6.354;2023-03-14T15:07:48;9.68;;;1.70;;
38113;SDS011;23926;53.222;6.354;2023-03-14T15:10:17;5.93;;;1.50;;
38113;SDS011;23926;53.222;6.354;2023-03-14T15:12:45;14.40;;;3.45;;
38113;SDS011;23926;53.222;6.354;2023-03-14T15:15:17;12.25;;;2.40;;
38113;SDS011;23926;53.222;6.354;2023-03-14T15:17:44;19.95;;;2.40;;
38113;SDS011;23926;53.222;6.354;2023-03-14T15:20:11;11.85;;;2.45;;
38113;SDS011;23926;53.222;6.354;2023-03-14T15:22:41;13.30;;;2.28;;
38113;SDS011;23926;53.222;6.354;2023-03-14T15:25:13;10.00;;;2.25;;
38113;SDS011;23926;53.222;6.354;2023-03-14T15:27:41;12.43;;;2.05;;
38113;SDS011;23926;53.222;6.354;2023-03-14T15:30:18;10.98;;;1.95;;
38113;SDS011;23926;53.222;6.354;2023-03-14T15:32:50;12.50;;;1.90;;
38113;SDS011;23926;53.222;6.354;2023-03-14T15:35:16;8.98;;;1.90;;
38113;SDS011;23926;53.222;6.354;2023-03-14T15:37:41;16.20;;;3.28;;
38113;SDS011;23926;53.222;6.354;2023-03-14T15:40:09;9.18;;;1.90;;
38113;SDS011;23926;53.222;6.354;2023-03-14T15:42:43;13.23;;;2.60;;
38113;SDS011;23926;53.222;6.354;2023-03-14T15:45:12;10.35;;;2.65;;
38113;SDS011;23926;53.222;6.354;2023-03-14T15:47:39;13.00;;;2.42;;
38113;SDS011;23926;53.222;6.354;2023-03-14T15:50:04;10.82;;;2.03;;